Time;durP1;ratioP1;P1;durP2;ratioP2;P2;SDS_P1;SDS_P2;PMS_P1;PMS_P2;Temp;Humidity;BMP_temperature;BMP_pressure;BME280_temperature;BME280_humidity;BME280_pressure;Samples;Min_cycle;Max_cycle;Signal;HPM_P1;HPM_P2
2021/09/22 00:00:42;;;;;;;8.82;5.75;;;;;;;11.07;71.40;101682.06;5091927;28;20048;-60
2021/09/22 00:03:09;;;;;;;9.85;6.13;;;;;;;11.10;71.04;101681.47;5091495;28;20048;-60
2021/09/22 00:05:40;;;;;;;9.23;5.68;;;;;;;11.13;71.03;101677.28;5092222;28;20052;-60
2021/09/22 00:08:08;;;;;;;9.20;6.10;;;;;;;11.14;71.25;101679.78;5092072;28;20052;-60
2021/09/22 00:10:36;;;;;;;10.35;5.78;;;;;;;11.12;71.00;101690.38;5092533;28;20438;-59
2021/09/22 00:13:04;;;;;;;7.47;5.25;;;;;;;11.11;70.69;101682.31;5092257;28;20510;-60
2021/09/22 00:15:31;;;;;;;10.40;6.22;;;;;;;11.01;71.01;101680.44;5091497;28;20056;-60
2021/09/22 00:17:58;;;;;;;8.77;5.93;;;;;;;10.93;71.48;101681.84;5091103;28;20052;-60
2021/09/22 00:20:26;;;;;;;10.75;5.70;;;;;;;10.94;71.57;101680.75;5095768;28;20055;-59
2021/09/22 00:22:55;;;;;;;8.93;5.60;;;;;;;10.90;71.35;101687.19;5095933;28;20056;-60
2021/09/22 00:25:25;;;;;;;10.63;6.60;;;;;;;10.83;71.58;101681.91;5095794;28;20052;-62
2021/09/22 00:27:52;;;;;;;;;;;;;;;10.80;71.83;101682.50;5096409;28;20502;-60
2021/09/22 00:30:19;;;;;;;7.95;5.55;;;;;;;10.85;71.35;101681.63;5096028;28;20293;-60
2021/09/22 00:32:47;;;;;;;9.55;6.13;;;;;;;10.82;71.27;101682.22;5095729;28;20056;-59
2021/09/22 00:35:15;;;;;;;14.40;5.93;;;;;;;10.82;71.17;101677.47;5095644;28;20059;-59
2021/09/22 00:37:42;;;;;;;10.52;5.97;;;;;;;10.75;71.20;101672.19;5095684;28;20052;-59
2021/09/22 00:40:11;;;;;;;8.88;6.25;;;;;;;10.71;71.21;101676.69;5094637;28;20052;-62
2021/09/22 00:42:40;;;;;;;9.52;6.00;;;;;;;10.71;71.31;101668.31;5095879;28;20051;-61
2021/09/22 00:45:10;;;;;;;9.00;5.90;;;;;;;10.69;71.41;101662.19;5095561;28;20052;-61
2021/09/22 00:47:41;;;;;;;8.27;5.57;;;;;;;10.67;71.46;101663.63;5095312;28;20056;-61
2021/09/22 00:50:10;;;;;;;7.53;5.47;;;;;;;10.66;71.68;101671.13;5095794;28;20048;-62
2021/09/22 00:52:40;;;;;;;8.80;5.82;;;;;;;10.59;71.38;101667.81;5095946;28;20398;-61
2021/09/22 00:55:09;;;;;;;7.40;5.50;;;;;;;10.61;71.56;101667.53;5094604;28;20055;-61
2021/09/22 00:57:43;;;;;;;8.30;5.53;;;;;;;10.57;71.51;101668.09;5095588;28;20051;-61
2021/09/22 01:00:14;;;;;;;7.88;5.40;;;;;;;10.57;71.60;101653.34;5095209;28;20460;-61
2021/09/22 01:02:47;;;;;;;8.93;5.70;;;;;;;10.57;71.61;101665.31;5095089;28;20056;-62
2021/09/22 01:05:16;;;;;;;8.40;5.95;;;;;;;10.55;71.28;101659.19;5095365;28;20063;-60
2021/09/22 01:07:44;;;;;;;11.73;5.97;;;;;;;10.50;71.62;101662.00;5095416;28;20052;-61
2021/09/22 01:10:11;;;;;;;7.68;5.47;;;;;;;10.51;71.51;101646.13;5094982;28;20044;-62
2021/09/22 01:12:40;;;;;;;9.38;5.85;;;;;;;10.49;71.67;101649.19;5090195;28;20045;-61
2021/09/22 01:15:09;;;;;;;8.93;5.63;;;;;;;10.42;71.78;101654.22;5074985;28;20071;-61
2021/09/22 01:17:36;;;;;;;10.77;6.18;;;;;;;10.40;72.13;101652.84;5077720;28;20047;-59
2021/09/22 01:20:06;;;;;;;8.95;5.95;;;;;;;10.40;72.07;101647.28;5095244;28;20048;-61
2021/09/22 01:22:35;;;;;;;9.80;5.65;;;;;;;10.42;71.84;101656.19;5095383;28;20044;-61
2021/09/22 01:25:03;;;;;;;9.55;6.13;;;;;;;10.46;71.40;101648.94;5094241;28;20048;-61
2021/09/22 01:27:31;;;;;;;10.25;6.13;;;;;;;10.46;71.19;101655.34;5094808;28;20051;-61
2021/09/22 01:29:59;;;;;;;8.23;6.15;;;;;;;10.40;71.28;101656.47;5095037;28;20056;-61
2021/09/22 01:32:26;;;;;;;7.82;5.82;;;;;;;10.35;71.99;101648.97;5094692;28;20386;-60
2021/09/22 01:34:53;;;;;;;7.75;5.35;;;;;;;10.36;71.72;101649.78;5094497;28;20075;-61
2021/09/22 01:37:21;;;;;;;9.77;6.07;;;;;;;10.33;72.03;101645.63;5094708;28;20048;-61
2021/09/22 01:39:49;;;;;;;9.23;6.35;;;;;;;10.30;72.04;101650.94;5094629;28;20082;-61
2021/09/22 01:42:17;;;;;;;8.95;6.30;;;;;;;10.25;71.98;101642.56;5094087;28;20517;-61
2021/09/22 01:44:44;;;;;;;8.25;5.95;;;;;;;10.23;72.48;101647.59;5094899;28;20482;-61
2021/09/22 01:47:11;;;;;;;8.50;5.82;;;;;;;10.19;72.62;101638.13;5094507;28;20054;-61
2021/09/22 01:49:38;;;;;;;8.45;6.43;;;;;;;10.22;71.91;101638.38;5094751;28;20048;-61
2021/09/22 01:52:08;;;;;;;10.00;6.20;;;;;;;10.20;72.44;101639.78;5093801;28;20052;-61
2021/09/22 01:54:36;;;;;;;8.80;5.88;;;;;;;10.21;72.04;101644.25;5094691;28;20043;-61
2021/09/22 01:57:05;;;;;;;9.68;6.18;;;;;;;10.22;72.30;101648.69;5094454;28;20063;-61
2021/09/22 01:59:32;;;;;;;9.75;6.35;;;;;;;10.24;71.83;101638.09;5094175;28;20048;-61
2021/09/22 02:02:00;;;;;;;7.60;5.90;;;;;;;10.25;71.87;101642.56;5094517;28;20056;-61
2021/09/22 02:04:27;;;;;;;10.82;6.10;;;;;;;10.24;71.79;101640.88;5093813;28;20052;-61
2021/09/22 02:06:55;;;;;;;9.55;5.90;;;;;;;10.14;72.29;101637.03;5093977;28;20056;-61
2021/09/22 02:09:22;;;;;;;9.75;5.97;;;;;;;10.02;72.46;101635.69;5094288;28;20056;-61
2021/09/22 02:11:49;;;;;;;7.55;5.93;;;;;;;10.03;72.46;101632.59;5094075;28;20418;-60
2021/09/22 02:14:21;;;;;;;8.88;6.13;;;;;;;10.07;72.12;101617.00;5075341;28;20056;-60
2021/09/22 02:16:48;;;;;;;10.13;6.30;;;;;;;10.14;71.66;101622.25;5073814;28;20064;-61
2021/09/22 02:19:15;;;;;;;9.32;6.40;;;;;;;10.11;71.49;101618.09;5073380;28;20405;-61
2021/09/22 02:21:43;;;;;;;6.85;5.90;;;;;;;10.10;71.15;101610.88;5078604;28;20413;-63
2021/09/22 02:24:10;;;;;;;7.57;5.55;;;;;;;10.03;71.54;101613.09;5093710;28;20044;-60
2021/09/22 02:26:37;;;;;;;8.18;5.68;;;;;;;10.02;71.79;101607.84;5093574;28;20055;-60
2021/09/22 02:29:05;;;;;;;10.73;6.50;;;;;;;10.00;71.98;101608.13;5093903;28;20056;-61
2021/09/22 02:31:34;;;;;;;7.45;5.47;;;;;;;10.03;71.82;101599.19;5093591;28;20059;-60
2021/09/22 02:34:02;;;;;;;8.77;6.07;;;;;;;10.00;71.60;101605.34;5094606;28;20518;-61
2021/09/22 02:36:30;;;;;;;9.57;6.25;;;;;;;9.96;71.97;101607.84;5093534;28;20055;-61
2021/09/22 02:38:58;;;;;;;6.22;5.25;;;;;;;9.96;71.52;101598.66;5093631;28;20051;-61
2021/09/22 02:41:25;;;;;;;8.57;5.53;;;;;;;9.94;71.38;101606.47;5093547;28;20055;-61
2021/09/22 02:43:53;;;;;;;8.27;5.88;;;;;;;9.95;71.49;101605.34;5092899;28;20051;-60
2021/09/22 02:46:20;;;;;;;8.70;6.20;;;;;;;9.95;71.43;101608.97;5092823;28;20391;-61
2021/09/22 02:48:48;;;;;;;8.73;5.90;;;;;;;9.95;71.52;101605.34;5093202;28;20092;-61
2021/09/22 02:51:16;;;;;;;8.52;6.03;;;;;;;9.93;70.81;101613.13;5092872;28;20056;-61
2021/09/22 02:53:43;;;;;;;7.47;5.32;;;;;;;9.92;71.07;101622.63;5092874;28;20056;-60
2021/09/22 02:56:10;;;;;;;7.70;5.45;;;;;;;9.88;71.33;101625.13;5093620;28;20062;-59
2021/09/22 02:58:38;;;;;;;7.20;5.10;;;;;;;9.86;71.08;101609.81;5093571;28;20494;-60
2021/09/22 03:01:05;;;;;;;9.75;6.35;;;;;;;9.83;71.49;101613.19;5093581;28;20059;-60
2021/09/22 03:03:32;;;;;;;7.75;5.25;;;;;;;9.79;71.92;101612.06;5093174;28;20055;-59
2021/09/22 03:06:01;;;;;;;8.52;5.50;;;;;;;9.77;71.81;101614.31;5093147;28;20052;-60
2021/09/22 03:08:29;;;;;;;9.68;5.72;;;;;;;9.78;71.54;101616.78;5092396;28;20513;-60
2021/09/22 03:10:57;;;;;;;9.35;5.40;;;;;;;9.75;72.00;101614.56;5093009;28;20063;-60
2021/09/22 03:13:25;;;;;;;8.40;5.55;;;;;;;9.72;71.53;101617.91;5092761;28;20059;-60
2021/09/22 03:15:53;;;;;;;9.38;5.60;;;;;;;9.72;71.67;101623.47;5092901;28;20055;-59
2021/09/22 03:18:21;;;;;;;7.63;5.55;;;;;;;9.71;71.98;101616.25;5093072;28;20052;-60
2021/09/22 03:20:48;;;;;;;10.02;6.40;;;;;;;9.71;71.69;101622.63;5093190;28;20052;-60
2021/09/22 03:23:17;;;;;;;7.78;5.38;;;;;;;9.74;71.43;101624.88;5092162;28;20101;-60
2021/09/22 03:25:44;;;;;;;8.50;5.88;;;;;;;9.73;71.69;101628.75;5092547;28;20059;-60
2021/09/22 03:28:12;;;;;;;8.02;6.28;;;;;;;9.68;71.72;101628.78;5092485;28;20398;-60
2021/09/22 03:30:40;;;;;;;8.93;5.95;;;;;;;9.67;72.30;101634.63;5092629;28;20063;-60
2021/09/22 03:33:07;;;;;;;8.95;6.72;;;;;;;9.69;71.93;101635.16;5092753;28;20052;-60
2021/09/22 03:35:35;;;;;;;8.13;6.63;;;;;;;9.67;71.99;101638.22;5092618;28;20052;-60
2021/09/22 03:38:03;;;;;;;10.52;6.50;;;;;;;9.65;71.40;101634.88;5092309;28;20474;-58
2021/09/22 03:40:31;;;;;;;9.73;6.60;;;;;;;9.68;71.67;101633.47;5092127;28;20075;-60
2021/09/22 03:42:59;;;;;;;11.50;6.55;;;;;;;9.67;71.59;101635.44;5092267;28;20059;-59
2021/09/22 03:45:27;;;;;;;8.13;6.25;;;;;;;9.65;71.74;101640.44;5088825;28;20040;-60
2021/09/22 03:47:57;;;;;;;9.63;6.65;;;;;;;9.59;72.07;101636.00;5072981;28;20048;-59
2021/09/22 03:50:25;;;;;;;11.00;7.03;;;;;;;9.55;72.43;101634.88;5072629;28;20386;-60
2021/09/22 03:52:52;;;;;;;10.38;7.25;;;;;;;9.54;72.64;101636.84;5074275;28;20059;-60
2021/09/22 03:55:20;;;;;;;10.65;7.13;;;;;;;9.55;72.80;101634.88;5095664;28;20071;-60
2021/09/22 03:57:48;;;;;;;10.60;6.72;;;;;;;9.55;72.96;101629.31;5096738;28;20052;-61
2021/09/22 04:00:16;;;;;;;11.68;7.20;;;;;;;9.54;72.20;101630.47;5095743;28;20130;-57
2021/09/22 04:02:43;;;;;;;10.43;7.35;;;;;;;9.53;72.30;101628.78;5096407;28;20478;-60
2021/09/22 04:05:11;;;;;;;9.40;7.32;;;;;;;9.55;72.16;101619.06;5096771;28;20047;-61
2021/09/22 04:07:39;;;;;;;9.93;7.30;;;;;;;9.51;72.38;101625.44;5096082;28;20051;-60
2021/09/22 04:10:07;;;;;;;11.52;8.15;;;;;;;9.47;72.14;101621.53;5096436;28;20048;-59
2021/09/22 04:12:35;;;;;;;10.35;7.25;;;;;;;9.33;73.13;101616.56;5096546;28;20048;-61
2021/09/22 04:15:04;;;;;;;11.13;7.30;;;;;;;9.42;72.21;101618.78;5096321;28;20063;-60
2021/09/22 04:17:32;;;;;;;10.98;7.13;;;;;;;9.44;72.13;101619.34;5096261;28;20052;-59
2021/09/22 04:19:59;;;;;;;12.82;7.60;;;;;;;9.43;72.37;101624.06;5095707;28;20052;-59
2021/09/22 04:22:26;;;;;;;11.18;7.78;;;;;;;9.42;72.02;101618.78;5096930;28;20390;-59
2021/09/22 04:24:54;;;;;;;11.73;7.80;;;;;;;9.41;71.66;101622.66;5095812;28;20150;-59
2021/09/22 04:27:21;;;;;;;11.20;8.10;;;;;;;9.42;72.15;101622.38;5096403;28;20486;-60
2021/09/22 04:29:49;;;;;;;12.23;7.88;;;;;;;9.34;72.55;101625.72;5096345;28;20490;-60
2021/09/22 04:32:18;;;;;;;9.55;7.30;;;;;;;9.36;71.93;101620.72;5095845;28;20417;-59
2021/09/22 04:34:45;;;;;;;10.32;7.28;;;;;;;9.39;72.39;101622.13;5095798;28;20413;-59
2021/09/22 04:37:14;;;;;;;10.20;6.68;;;;;;;9.37;71.76;101618.78;5096151;28;20485;-59
2021/09/22 04:39:41;;;;;;;10.75;6.57;;;;;;;9.35;71.97;101619.88;5095480;28;20048;-59
2021/09/22 04:42:09;;;;;;;9.77;7.10;;;;;;;9.38;71.70;101623.22;5095630;28;20052;-59
2021/09/22 04:44:36;;;;;;;9.90;7.07;;;;;;;9.36;71.81;101631.84;5096518;28;20509;-59
2021/09/22 04:47:05;;;;;;;11.77;6.85;;;;;;;9.36;71.80;101634.63;5078408;28;20061;-59
2021/09/22 04:49:37;;;;;;;10.50;6.63;;;;;;;9.38;71.93;101628.78;5075867;28;20048;-58
2021/09/22 04:52:04;;;;;;;9.93;7.07;;;;;;;9.38;71.93;101634.34;5079415;28;20417;-59
2021/09/22 04:54:32;;;;;;;9.32;6.38;;;;;;;9.34;71.51;101637.69;5096133;28;20059;-59
2021/09/22 04:56:59;;;;;;;10.63;6.65;;;;;;;9.37;71.47;101641.03;5096020;28;20056;-59
2021/09/22 04:59:27;;;;;;;9.45;6.57;;;;;;;9.32;71.89;101633.50;5095403;28;20486;-59
2021/09/22 05:01:54;;;;;;;11.60;7.35;;;;;;;9.35;71.41;101632.97;5095482;28;20486;-58
2021/09/22 05:04:22;;;;;;;9.18;7.20;;;;;;;9.38;71.50;101635.19;5095090;28;20055;-59
2021/09/22 05:06:51;;;;;;;12.63;7.97;;;;;;;9.34;71.59;101634.91;5095349;28;20071;-59
2021/09/22 05:09:18;;;;;;;10.65;7.30;;;;;;;9.25;72.34;101642.13;5095805;28;20052;-59
2021/09/22 05:11:45;;;;;;;12.20;7.70;;;;;;;9.30;71.67;101633.81;5093604;28;20059;-60
2021/09/22 05:14:15;;;;;;;12.85;8.80;;;;;;;9.33;71.81;101640.75;5094907;28;20055;-59
2021/09/22 05:16:43;;;;;;;12.30;7.22;;;;;;;9.28;72.59;101643.50;5095382;28;20059;-60
2021/09/22 05:19:10;;;;;;;12.60;7.63;;;;;;;9.31;71.86;101646.56;5094808;28;20044;-60
2021/09/22 05:21:37;;;;;;;14.00;7.90;;;;;;;9.37;71.96;101641.88;5095172;28;20047;-59
2021/09/22 05:24:06;;;;;;;9.63;7.13;;;;;;;9.43;71.56;101642.69;5093938;28;20043;-59
2021/09/22 05:26:37;;;;;;;10.02;7.78;;;;;;;9.44;71.39;101630.47;5095023;28;20079;-60
2021/09/22 05:29:04;;;;;;;11.18;7.68;;;;;;;9.43;71.33;101637.97;5094989;28;20044;-60
2021/09/22 05:31:32;;;;;;;11.45;7.18;;;;;;;9.47;71.84;101636.31;5094904;28;20130;-60
2021/09/22 05:33:59;;;;;;;10.32;7.40;;;;;;;9.55;71.46;101646.88;5094210;28;20116;-59
2021/09/22 05:36:27;;;;;;;10.65;6.97;;;;;;;9.60;71.18;101648.81;5092067;28;20055;-59
2021/09/22 05:38:55;;;;;;;12.07;7.30;;;;;;;9.66;70.72;101653.25;5093200;28;20059;-59
2021/09/22 05:41:23;;;;;;;12.02;7.32;;;;;;;9.67;70.18;101654.09;5092636;28;20044;-58
2021/09/22 05:43:51;;;;;;;10.57;6.43;;;;;;;9.72;70.39;101652.16;5093217;28;20498;-60
2021/09/22 05:46:19;;;;;;;10.80;6.57;;;;;;;9.78;70.55;101654.91;5095303;28;20059;-59
2021/09/22 05:48:46;;;;;;;11.52;7.30;;;;;;;9.82;69.85;101656.03;5092040;28;20390;-60
2021/09/22 05:51:16;;;;;;;10.48;7.22;;;;;;;9.85;70.08;101655.44;5092667;28;20058;-58
2021/09/22 05:53:44;;;;;;;12.52;7.18;;;;;;;9.96;70.38;101657.13;5092414;28;20048;-59
2021/09/22 05:56:12;;;;;;;8.75;6.45;;;;;;;10.04;70.28;101664.06;5094031;28;20414;-60
2021/09/22 05:58:41;;;;;;;12.10;7.60;;;;;;;10.15;69.87;101672.09;5093867;28;20516;-60
2021/09/22 06:01:08;;;;;;;10.80;7.60;;;;;;;10.28;69.50;101667.06;5093046;28;20059;-60
2021/09/22 06:03:36;;;;;;;11.93;7.32;;;;;;;10.38;69.44;101667.06;5093249;28;20060;-60
2021/09/22 06:06:03;;;;;;;11.50;7.45;;;;;;;10.55;69.06;101663.94;5092914;28;20051;-60
2021/09/22 06:08:31;;;;;;;11.05;7.38;;;;;;;10.46;69.81;101663.69;5094068;28;20067;-60
2021/09/22 06:10:59;;;;;;;11.50;7.20;;;;;;;10.76;68.76;101664.66;5093984;28;20055;-60
2021/09/22 06:13:26;;;;;;;11.15;6.80;;;;;;;10.84;68.68;101658.50;5094138;28;20051;-60
2021/09/22 06:15:55;;;;;;;13.23;7.72;;;;;;;11.03;68.18;101655.88;5093068;28;20413;-59
2021/09/22 06:18:23;;;;;;;10.65;7.30;;;;;;;11.30;67.96;101658.19;5094445;28;20056;-60
2021/09/22 06:20:50;;;;;;;11.73;8.10;;;;;;;11.62;66.90;101661.59;5092997;28;20521;-60
2021/09/22 06:23:18;;;;;;;12.55;7.45;;;;;;;11.86;66.07;101661.63;5093445;28;20056;-60
2021/09/22 06:25:46;;;;;;;11.40;7.25;;;;;;;12.11;65.13;101672.56;5094087;28;20426;-60
2021/09/22 06:28:13;;;;;;;9.73;6.95;;;;;;;12.36;64.32;101662.25;5093159;28;20048;-60
2021/09/22 06:30:40;;;;;;;10.63;6.40;;;;;;;12.54;63.65;101667.06;5092538;28;20055;-59
2021/09/22 06:33:10;;;;;;;7.75;6.13;;;;;;;12.69;63.53;101663.25;5093702;28;20059;-60
2021/09/22 06:35:37;;;;;;;7.35;6.10;;;;;;;12.84;63.25;101667.78;5093637;28;20413;-60
2021/09/22 06:38:04;;;;;;;10.60;6.55;;;;;;;13.05;62.01;101673.09;5092033;28;20524;-60
2021/09/22 06:40:32;;;;;;;10.07;7.60;;;;;;;13.14;61.83;101666.50;5093407;28;20048;-59
2021/09/22 06:43:01;;;;;;;9.88;6.90;;;;;;;13.44;61.58;101670.03;5093504;28;20047;-59
2021/09/22 06:45:29;;;;;;;12.40;7.32;;;;;;;13.77;60.40;101668.06;5092816;28;20391;-60
2021/09/22 06:47:56;;;;;;;11.18;7.22;;;;;;;14.07;60.02;101665.84;5093233;28;20056;-60
2021/09/22 06:50:29;;;;;;;9.40;7.45;;;;;;;14.44;58.65;101658.38;5093629;28;20505;-60
2021/09/22 06:52:57;;;;;;;10.32;7.70;;;;;;;14.98;57.30;101655.88;5093498;28;20044;-60
2021/09/22 06:55:24;;;;;;;9.98;6.90;;;;;;;15.37;56.40;101663.66;5092952;28;20063;-60
2021/09/22 06:57:52;;;;;;;10.70;7.35;;;;;;;15.92;54.30;101667.38;5081808;28;20048;-60
2021/09/22 07:00:19;;;;;;;9.77;7.18;;;;;;;16.30;53.30;101662.09;5083335;28;20048;-61
2021/09/22 07:02:47;;;;;;;9.55;7.03;;;;;;;16.76;51.91;101660.78;5079463;28;20063;-60
2021/09/22 07:05:16;;;;;;;14.65;9.70;;;;;;;16.64;52.21;101671.81;5083453;28;20456;-61
2021/09/22 07:07:47;;;;;;;13.45;9.07;;;;;;;16.55;52.05;101670.97;5087095;28;20055;-60
2021/09/22 07:10:15;;;;;;;12.75;7.57;;;;;;;16.41;52.18;101669.09;5089424;28;20457;-60
2021/09/22 07:12:43;;;;;;;9.77;6.97;;;;;;;16.52;51.97;101674.44;5077963;28;20056;-60
2021/09/22 07:15:11;;;;;;;10.38;7.63;;;;;;;16.65;51.72;101676.28;5083843;28;20053;-61
2021/09/22 07:17:38;;;;;;;10.52;7.45;;;;;;;16.98;51.14;101668.28;5079058;28;20414;-60
2021/09/22 07:20:07;;;;;;;10.00;7.47;;;;;;;17.22;50.96;101672.63;5090451;28;20666;-61
2021/09/22 07:22:35;;;;;;;10.77;7.97;;;;;;;17.48;49.73;101677.44;5082161;28;20052;-61
2021/09/22 07:25:05;;;;;;;12.57;8.60;;;;;;;17.92;48.65;101675.41;5078434;28;20056;-61
2021/09/22 07:27:32;;;;;;;11.30;8.00;;;;;;;18.80;47.06;101671.09;5080699;28;20055;-61
2021/09/22 07:29:59;;;;;;;9.57;8.20;;;;;;;19.38;45.32;101676.97;5075054;28;20048;-60
2021/09/22 07:32:27;;;;;;;10.73;8.10;;;;;;;19.94;43.78;101676.66;5081819;28;20056;-60
2021/09/22 07:34:55;;;;;;;10.15;8.82;;;;;;;20.48;42.95;101674.50;5083633;28;20158;-60
2021/09/22 07:37:22;;;;;;;10.35;7.95;;;;;;;21.06;41.78;101674.41;5082007;28;20048;-61
2021/09/22 07:39:49;;;;;;;11.15;8.80;;;;;;;21.38;40.47;101668.06;5081804;28;20074;-61
2021/09/22 07:42:18;;;;;;;14.50;10.10;;;;;;;21.91;39.47;101680.13;5086078;28;20060;-61
2021/09/22 07:44:53;;;;;;;12.18;8.93;;;;;;;22.06;39.38;101678.50;5078380;28;20490;-60
2021/09/22 07:47:22;;;;;;;13.68;8.90;;;;;;;22.43;38.57;101678.31;5080234;28;20056;-61
2021/09/22 07:49:49;;;;;;;11.83;9.00;;;;;;;22.89;37.58;101678.63;5084480;28;20044;-61
2021/09/22 07:52:18;;;;;;;13.43;9.20;;;;;;;23.16;37.28;101671.16;5075712;28;20056;-60
2021/09/22 07:54:45;;;;;;;16.42;9.82;;;;;;;22.93;37.68;101670.16;5085502;28;20052;-60
2021/09/22 07:57:13;;;;;;;12.32;9.45;;;;;;;23.63;36.38;101660.78;5089615;28;20130;-62
2021/09/22 07:59:42;;;;;;;12.52;9.63;;;;;;;24.03;35.63;101668.09;5090454;28;20051;-61
2021/09/22 08:02:10;;;;;;;13.25;9.32;;;;;;;24.58;34.90;101665.81;5083315;28;20052;-62
2021/09/22 08:04:38;;;;;;;11.38;8.93;;;;;;;24.90;34.21;101666.34;5077168;28;20053;-60
2021/09/22 08:07:05;;;;;;;11.10;9.30;;;;;;;25.30;33.66;101664.91;5077992;28;20051;-61
2021/09/22 08:09:33;;;;;;;11.85;10.52;;;;;;;25.50;33.82;101659.84;5078787;28;20530;-61
2021/09/22 08:12:01;;;;;;;15.02;10.52;;;;;;;25.94;32.73;101661.19;5089308;28;20048;-61
2021/09/22 08:14:30;;;;;;;13.85;9.95;;;;;;;26.21;32.12;101658.22;5086675;28;20055;-60
2021/09/22 08:17:01;;;;;;;15.15;10.80;;;;;;;26.47;31.61;101660.06;5086661;28;20056;-61
2021/09/22 08:19:29;;;;;;;11.18;9.95;;;;;;;26.86;31.30;101662.44;5076928;28;20075;-61
2021/09/22 08:21:57;;;;;;;12.32;9.57;;;;;;;26.98;31.04;101661.28;5088335;28;20494;-61
2021/09/22 08:24:25;;;;;;;11.13;9.93;;;;;;;27.94;29.60;101658.88;5083703;28;20051;-61
2021/09/22 08:26:53;;;;;;;12.55;11.15;;;;;;;28.35;29.26;101663.44;5076506;28;20478;-60
2021/09/22 08:29:20;;;;;;;13.65;9.70;;;;;;;29.50;27.47;101654.66;5076217;28;20060;-61
2021/09/22 08:31:51;;;;;;;12.27;9.90;;;;;;;30.27;26.35;101651.75;5074748;28;20055;-61
2021/09/22 08:34:21;;;;;;;11.70;9.63;;;;;;;30.68;26.13;101653.06;5078705;28;20044;-61
2021/09/22 08:36:49;;;;;;;11.40;9.70;;;;;;;31.65;24.66;101643.38;5086521;28;20056;-61
2021/09/22 08:39:18;;;;;;;12.10;9.88;;;;;;;31.59;24.83;101639.34;5084673;28;20053;-60
2021/09/22 08:41:48;;;;;;;12.50;10.27;;;;;;;31.52;24.76;101641.06;5081817;28;20048;-60
2021/09/22 08:44:17;;;;;;;11.70;10.50;;;;;;;33.04;22.80;101628.69;5083245;28;20059;-60
2021/09/22 08:46:47;;;;;;;11.52;10.15;;;;;;;32.96;23.58;101636.69;5085229;28;20434;-59
2021/09/22 08:49:15;;;;;;;14.85;11.07;;;;;;;31.95;24.22;101646.19;5089588;28;20048;-60
2021/09/22 08:51:46;;;;;;;14.98;11.55;;;;;;;32.86;23.41;101631.94;5080240;28;20051;-60
2021/09/22 08:54:14;;;;;;;14.52;11.95;;;;;;;32.86;23.11;101634.81;5088374;28;20059;-61
2021/09/22 08:56:43;;;;;;;15.50;12.10;;;;;;;33.74;21.48;101633.44;5092635;28;20418;-60
2021/09/22 08:59:14;;;;;;;13.05;10.82;;;;;;;33.94;21.63;101627.59;5094179;28;20055;-60
2021/09/22 09:01:42;;;;;;;15.07;12.20;;;;;;;34.58;20.72;101624.38;5089896;28;20386;-60
2021/09/22 09:04:17;;;;;;;13.82;11.10;;;;;;;35.53;20.78;101619.22;5092924;28;20048;-59
2021/09/22 09:06:47;;;;;;;15.40;12.60;;;;;;;36.12;19.13;101624.81;5085196;28;20040;-60
2021/09/22 09:09:14;;;;;;;17.38;13.38;;;;;;;36.02;19.49;101614.41;5084055;28;20053;-60
2021/09/22 09:11:44;;;;;;;15.85;11.98;;;;;;;36.56;18.50;101624.97;5077653;28;20056;-60
2021/09/22 09:14:13;;;;;;;15.90;12.32;;;;;;;36.73;18.44;101609.06;5080266;28;20059;-60
2021/09/22 09:16:43;;;;;;;15.30;11.70;;;;;;;36.99;18.21;101606.03;5087995;28;20070;-60
2021/09/22 09:19:14;;;;;;;14.98;11.82;;;;;;;37.11;18.77;101608.09;5093676;28;20656;-60
2021/09/22 09:21:57;;;;;;;14.68;12.43;;;;;;;37.07;18.38;101600.78;5088973;28;20055;-60
2021/09/22 09:24:33;;;;;;;13.02;11.63;;;;;;;36.38;18.55;101606.13;5089306;28;20063;-60
2021/09/22 09:27:01;;;;;;;13.85;12.20;;;;;;;37.70;17.86;101604.59;5087799;28;20052;-60
2021/09/22 09:29:29;;;;;;;;;;;;;;;38.24;17.39;101603.19;5078845;28;20498;-60
2021/09/22 09:32:14;;;;;;;12.70;11.25;;;;;;;39.35;16.48;101597.38;5084415;28;19998;-60
2021/09/22 09:34:58;;;;;;;14.70;11.10;;;;;;;39.17;17.11;101596.16;5081084;28;20067;-59
2021/09/22 09:37:35;;;;;;;11.55;9.90;;;;;;;39.97;16.46;101593.97;5088966;28;20063;-60
2021/09/22 09:40:20;;;;;;;14.77;10.07;;;;;;;40.39;15.95;101595.19;5079986;28;20059;-60
2021/09/22 09:42:50;;;;;;;16.92;10.27;;;;;;;40.34;15.63;101585.03;5085951;28;20504;-60
2021/09/22 09:45:20;;;;;;;12.00;9.40;;;;;;;39.68;16.32;101585.81;5083350;28;20054;-60
2021/09/22 09:48:06;;;;;;;11.60;9.45;;;;;;;38.06;17.48;101582.78;5084449;28;20057;-60
2021/09/22 09:50:42;;;;;;;11.77;9.18;;;;;;;38.04;17.33;101573.72;5078336;28;20559;-60
2021/09/22 09:53:22;;;;;;;12.32;9.68;;;;;;;38.32;17.34;101571.66;5088310;28;20401;-60
2021/09/22 09:55:50;;;;;;;11.48;9.57;;;;;;;37.86;17.80;101568.63;5085519;28;20059;-60
2021/09/22 09:58:19;;;;;;;13.65;10.00;;;;;;;38.30;17.45;101574.25;5083264;28;20055;-60
2021/09/22 10:00:49;;;;;;;11.23;9.38;;;;;;;38.66;17.05;101566.84;5074407;28;20047;-60
2021/09/22 10:03:19;;;;;;;12.88;10.07;;;;;;;38.91;16.25;101565.72;5084111;28;20044;-60
2021/09/22 10:05:48;;;;;;;11.63;9.73;;;;;;;39.29;16.50;101558.53;5078602;28;20048;-60
2021/09/22 10:08:18;;;;;;;11.25;9.50;;;;;;;40.26;15.64;101569.16;5088116;28;20044;-59
2021/09/22 10:10:48;;;;;;;11.65;9.68;;;;;;;39.48;15.79;101568.91;5081165;28;20450;-60
2021/09/22 10:13:17;;;;;;;12.63;9.98;;;;;;;40.06;15.33;101563.13;5084934;28;20051;-59
2021/09/22 10:15:47;;;;;;;10.95;8.82;;;;;;;40.25;15.42;101549.22;5085178;28;20052;-59
2021/09/22 10:18:14;;;;;;;10.98;9.35;;;;;;;40.40;15.62;101550.09;5085145;28;20044;-59
2021/09/22 10:20:44;;;;;;;11.15;8.02;;;;;;;39.18;16.54;101550.31;5087583;28;20055;-59
2021/09/22 10:23:14;;;;;;;9.52;8.57;;;;;;;39.30;15.86;101552.22;5090869;28;20051;-60
2021/09/22 10:25:46;;;;;;;11.30;9.05;;;;;;;39.78;15.71;101557.41;5082727;28;20067;-60
2021/09/22 10:28:14;;;;;;;9.98;8.98;;;;;;;39.81;15.20;101556.41;5083370;28;20052;-60
2021/09/22 10:30:43;;;;;;;9.00;8.15;;;;;;;40.67;14.20;101554.09;5088467;28;20592;-60
2021/09/22 10:33:25;;;;;;;9.50;8.40;;;;;;;41.46;14.13;101540.97;5081405;28;20052;-60
2021/09/22 10:35:56;;;;;;;9.05;7.97;;;;;;;41.61;14.29;101546.81;5080633;28;20059;-60
2021/09/22 10:38:43;;;;;;;9.35;8.35;;;;;;;42.10;13.52;101537.16;5086304;28;20055;-60
2021/09/22 10:41:27;;;;;;;9.80;7.95;;;;;;;42.25;13.13;101537.09;5079895;28;22073;-60
2021/09/22 10:43:54;;;;;;;9.35;8.30;;;;;;;43.02;12.75;101531.88;5077831;28;20418;-60
2021/09/22 10:46:23;;;;;;;9.13;7.57;;;;;;;41.31;13.28;101527.16;5084224;28;20498;-60
2021/09/22 10:49:07;;;;;;;;;;;;;;;40.09;14.35;101536.66;5073793;28;20446;-60
2021/09/22 10:51:39;;;;;;;9.13;7.85;;;;;;;41.82;13.66;101524.25;5087841;28;19931;-60
2021/09/22 10:54:08;;;;;;;8.70;7.88;;;;;;;42.78;12.63;101518.31;5078659;28;20052;-60
2021/09/22 10:56:55;;;;;;;9.95;8.30;;;;;;;42.68;12.57;101522.72;5086748;28;20048;-60
2021/09/22 10:59:36;;;;;;;9.00;8.10;;;;;;;43.17;12.71;101505.38;5082820;28;20056;-60
2021/09/22 11:02:05;;;;;;;7.97;7.18;;;;;;;43.94;11.95;101509.41;5084218;28;20055;-60
2021/09/22 11:04:58;;;;;;;7.72;7.03;;;;;;;43.58;12.29;101505.97;5090809;28;20051;-60
2021/09/22 11:08:12;;;;;;;7.35;6.65;;;;;;;43.95;11.49;101501.41;5088390;28;20052;-60
2021/09/22 11:10:44;;;;;;;7.40;6.70;;;;;;;44.04;11.98;101506.25;5009299;28;20054;-60
2021/09/22 11:13:38;;;;;;;7.20;6.50;;;;;;;44.27;11.99;101493.31;5063894;28;20064;-60
2021/09/22 11:16:14;;;;;;;7.90;6.40;;;;;;;44.13;12.17;101500.19;5085846;28;20055;-60
2021/09/22 11:18:47;;;;;;;7.28;5.72;;;;;;;44.28;12.32;101485.28;5083027;28;20048;-60
2021/09/22 11:21:19;;;;;;;7.15;5.85;;;;;;;44.50;11.28;101490.44;5090584;28;20066;-60
2021/09/22 11:23:46;;;;;;;6.50;5.78;;;;;;;44.85;11.72;101480.38;5085242;28;20048;-60
2021/09/22 11:26:14;;;;;;;6.18;5.30;;;;;;;45.23;11.39;101486.81;5072723;28;20052;-60
2021/09/22 11:28:52;;;;;;;6.70;6.10;;;;;;;45.10;10.64;101482.25;5090313;28;20067;-60
2021/09/22 11:31:21;;;;;;;6.30;5.45;;;;;;;44.46;11.83;101478.16;5079854;28;20071;-60